createdAt,value
2019-04-21T00:01:44.684Z,10.30
2019-04-21T00:04:24.871Z,10.87
2019-04-21T00:07:02.942Z,11.37
2019-04-21T00:12:05.987Z,11.97
2019-04-21T00:14:27.313Z,11.63
2019-04-21T00:16:53.921Z,10.67
2019-04-21T00:19:42.961Z,10.93
2019-04-21T00:22:26.083Z,10.30
2019-04-21T00:24:56.916Z,11.60
2019-04-21T00:27:28.612Z,11.50
2019-04-21T00:30:08.673Z,11.07
2019-04-21T00:32:28.249Z,11.13
2019-04-21T00:34:56.561Z,11.10
2019-04-21T00:37:31.927Z,11.10
2019-04-21T00:40:12.897Z,10.37
2019-04-21T00:42:41.539Z,10.93
2019-04-21T00:45:09.729Z,10.70
2019-04-21T00:47:39.022Z,11.03
2019-04-21T00:50:12.792Z,11.20
2019-04-21T00:53:00.439Z,10.63
2019-04-21T00:55:48.823Z,10.57
2019-04-21T00:58:28.415Z,11.90
2019-04-21T01:00:51.351Z,10.80
2019-04-21T01:03:26.570Z,11.37
2019-04-21T01:05:56.070Z,10.57
2019-04-21T01:08:30.282Z,11.07
2019-04-21T01:10:49.872Z,11.70
2019-04-21T01:13:39.456Z,11.00
2019-04-21T01:16:00.822Z,11.10
2019-04-21T01:18:32.586Z,11.70
2019-04-21T01:20:40.382Z,12.10
2019-04-21T01:23:10.523Z,11.80
2019-04-21T01:25:50.358Z,11.23
2019-04-21T01:28:32.791Z,11.67
2019-04-21T01:31:05.723Z,10.93
2019-04-21T01:33:39.664Z,11.27
2019-04-21T01:36:03.834Z,11.07
2019-04-21T01:38:42.789Z,10.60
2019-04-21T01:41:16.294Z,11.63
2019-04-21T01:43:33.321Z,11.10
2019-04-21T01:46:08.098Z,12.30
2019-04-21T01:48:34.584Z,11.47
2019-04-21T01:51:05.404Z,11.83
2019-04-21T01:54:09.370Z,11.67
2019-04-21T01:56:58.556Z,11.43
2019-04-21T01:59:32.140Z,11.87
2019-04-21T02:02:10.647Z,12.17
2019-04-21T02:04:41.526Z,12.20
2019-04-21T02:07:10.266Z,12.17
2019-04-21T02:09:46.397Z,11.70
2019-04-21T02:12:15.834Z,12.60
2019-04-21T02:14:50.374Z,11.77
2019-04-21T02:17:16.424Z,11.33
2019-04-21T02:19:45.117Z,11.27
2019-04-21T02:22:19.207Z,11.63
2019-04-21T02:24:58.036Z,11.40
2019-04-21T02:27:23.803Z,12.10
2019-04-21T02:29:55.214Z,12.00
2019-04-21T02:32:39.398Z,12.60
2019-04-21T02:40:29.791Z,11.23
2019-04-21T02:42:47.883Z,11.40
2019-04-21T02:45:08.769Z,12.20
2019-04-21T02:47:50.376Z,11.33
2019-04-21T02:50:21.583Z,12.03
2019-04-21T02:52:50.006Z,11.63
2019-04-21T02:55:08.162Z,12.00
2019-04-21T03:00:25.204Z,11.50
2019-04-21T03:03:06.968Z,12.07
2019-04-21T03:06:06.097Z,12.10
2019-04-21T03:08:47.477Z,11.60
2019-04-21T03:11:11.000Z,11.80
2019-04-21T03:13:44.642Z,11.53
2019-04-21T03:16:20.211Z,11.50
2019-04-21T03:18:49.497Z,12.50
2019-04-21T03:23:52.269Z,11.30
2019-04-21T03:26:20.490Z,10.87
2019-04-21T03:28:45.747Z,11.07
2019-04-21T03:31:38.581Z,11.07
2019-04-21T03:36:41.290Z,10.27
2019-04-21T03:38:46.886Z,10.37
2019-04-21T03:41:20.424Z,12.13
2019-04-21T03:43:52.530Z,11.43
2019-04-21T03:53:53.997Z,10.90
2019-04-21T03:56:52.260Z,11.33
2019-04-21T04:01:53.446Z,10.40
2019-04-21T04:10:07.715Z,11.30
2019-04-21T04:12:23.147Z,10.97
2019-04-21T04:15:15.653Z,10.90
2019-04-21T04:17:26.668Z,11.63
2019-04-21T04:20:01.479Z,10.77
2019-04-21T04:22:31.829Z,11.57
2019-04-21T04:27:49.471Z,11.37
2019-04-21T04:30:10.696Z,11.67
2019-04-21T04:35:13.857Z,10.37
2019-04-21T04:37:40.600Z,9.37
2019-04-21T04:43:11.841Z,9.77
2019-04-21T04:48:09.171Z,10.23
2019-04-21T04:50:49.398Z,10.97
2019-04-21T04:53:15.688Z,9.93
2019-04-21T04:58:29.625Z,10.90
2019-04-21T05:00:42.665Z,10.37
2019-04-21T05:03:18.966Z,10.27
2019-04-21T05:06:37.137Z,10.50
2019-04-21T05:09:02.866Z,10.43
2019-04-21T05:11:41.667Z,10.63
2019-04-21T05:14:02.668Z,11.10
2019-04-21T05:16:36.626Z,9.90
2019-04-21T05:19:04.167Z,10.37
2019-04-21T05:23:50.111Z,10.33
2019-04-21T05:26:13.565Z,10.47
2019-04-21T05:28:42.303Z,9.80
2019-04-21T05:31:42.160Z,10.60
2019-04-21T05:34:32.016Z,9.40
2019-04-21T05:37:14.219Z,9.67
2019-04-21T05:39:49.278Z,10.33
2019-04-21T05:42:15.368Z,10.63
2019-04-21T05:45:01.769Z,10.07
2019-04-21T05:47:55.850Z,10.10
2019-04-21T05:50:16.607Z,10.73
2019-04-21T05:52:50.360Z,10.30
2019-04-21T05:55:34.323Z,10.13
2019-04-21T05:57:59.914Z,10.20
2019-04-21T06:00:48.990Z,10.10
2019-04-21T06:03:03.709Z,9.73
2019-04-21T06:05:47.924Z,9.77
2019-04-21T06:08:09.800Z,9.73
2019-04-21T06:10:43.681Z,10.37
2019-04-21T06:13:13.026Z,8.93
2019-04-21T06:15:45.575Z,9.13
2019-04-21T06:18:11.711Z,9.47
2019-04-21T06:20:40.596Z,9.60
2019-04-21T06:23:12.282Z,9.40
2019-04-21T06:25:57.245Z,9.63
2019-04-21T06:28:17.840Z,10.57
2019-04-21T06:33:24.049Z,9.97
2019-04-21T06:36:24.071Z,9.87
2019-04-21T06:46:30.862Z,8.53
2019-04-21T06:49:00.039Z,9.63
2019-04-21T06:54:03.609Z,9.87
2019-04-21T06:56:37.975Z,10.27
2019-04-21T06:59:01.377Z,10.67
2019-04-21T07:01:39.017Z,10.80
2019-04-21T07:04:13.184Z,10.53
2019-04-21T07:06:45.762Z,11.40
2019-04-21T07:09:17.382Z,11.53
2019-04-21T07:11:34.941Z,11.77
2019-04-21T07:14:27.254Z,12.00
2019-04-21T07:19:21.404Z,11.57
2019-04-21T07:21:40.650Z,12.00
2019-04-21T07:24:13.891Z,11.50
2019-04-21T07:26:44.719Z,11.87
2019-04-21T07:29:14.117Z,10.57
2019-04-21T07:31:55.885Z,12.20
2019-04-21T07:34:21.638Z,12.40
2019-04-21T07:36:58.053Z,11.43
2019-04-21T07:39:12.149Z,10.77
2019-04-21T07:41:43.750Z,11.30
2019-04-21T07:44:09.140Z,10.70
2019-04-21T07:46:41.389Z,10.60
2019-04-21T07:49:39.936Z,11.07
2019-04-21T07:52:37.804Z,10.63
2019-04-21T07:55:12.732Z,11.47
2019-04-21T07:57:36.847Z,10.80
2019-04-21T08:00:14.910Z,10.50
2019-04-21T08:02:35.098Z,11.07
2019-04-21T08:05:20.072Z,10.47
2019-04-21T08:07:48.170Z,10.80
2019-04-21T08:10:07.818Z,10.30
2019-04-21T08:12:29.916Z,10.67
2019-04-21T08:15:15.481Z,10.53
2019-04-21T08:17:41.428Z,10.30
2019-04-21T08:20:09.211Z,10.40
2019-04-21T08:22:48.120Z,10.17
2019-04-21T08:25:15.154Z,9.97
2019-04-21T08:27:47.687Z,9.97
2019-04-21T08:30:19.090Z,10.30
2019-04-21T08:37:48.126Z,9.70
2019-04-21T08:40:36.905Z,10.60
2019-04-21T08:42:54.070Z,9.93
2019-04-21T08:45:27.926Z,10.40
2019-04-21T08:47:52.047Z,10.10
2019-04-21T08:50:26.609Z,10.43
2019-04-21T08:52:56.635Z,10.30
2019-04-21T08:56:07.556Z,9.80
2019-04-21T08:58:43.081Z,10.50
2019-04-21T09:01:23.882Z,10.40
2019-04-21T09:04:18.599Z,9.83
2019-04-21T09:06:50.052Z,9.23
2019-04-21T09:09:04.637Z,9.80
2019-04-21T09:11:37.475Z,9.87
2019-04-21T09:14:07.055Z,10.13
2019-04-21T09:16:35.161Z,9.27
2019-04-21T09:19:04.407Z,10.37
2019-04-21T09:21:45.518Z,9.47
2019-04-21T09:24:13.391Z,10.07
2019-04-21T09:26:41.426Z,9.40
2019-04-21T09:29:05.860Z,9.37
2019-04-21T09:31:30.988Z,9.63
2019-04-21T09:33:59.335Z,9.47
2019-04-21T09:36:36.180Z,9.40
2019-04-21T09:39:07.585Z,8.97
2019-04-21T09:41:34.245Z,9.30
2019-04-21T09:44:02.979Z,9.00
2019-04-21T09:46:35.412Z,9.03
2019-04-21T09:49:06.524Z,9.00
2019-04-21T09:51:34.637Z,8.90
2019-04-21T09:54:08.816Z,8.43
2019-04-21T09:56:45.471Z,8.70
2019-04-21T09:59:13.267Z,7.93
2019-04-21T10:01:50.358Z,8.23
2019-04-21T10:04:09.841Z,8.17
2019-04-21T10:06:39.533Z,8.03
2019-04-21T10:09:14.445Z,7.93
2019-04-21T10:11:43.918Z,7.67
2019-04-21T10:14:13.826Z,7.73
2019-04-21T10:17:11.371Z,7.87
2019-04-21T10:19:41.882Z,7.90
2019-04-21T10:22:12.525Z,7.43
2019-04-21T10:24:42.499Z,7.43
2019-04-21T10:27:13.312Z,7.63
2019-04-21T10:29:44.885Z,7.50
2019-04-21T10:32:15.341Z,7.23
2019-04-21T10:34:45.301Z,7.10
2019-04-21T10:37:14.597Z,7.57
2019-04-21T10:39:43.873Z,6.50
2019-04-21T10:42:13.283Z,6.77
2019-04-21T10:44:43.191Z,6.43
2019-04-21T10:47:12.855Z,7.07
2019-04-21T10:49:44.784Z,7.50
2019-04-21T10:52:19.442Z,6.80
2019-04-21T10:55:11.292Z,7.00
2019-04-21T10:57:24.423Z,6.90
2019-04-21T10:59:55.718Z,7.07
2019-04-21T11:02:32.839Z,6.50
2019-04-21T11:05:02.948Z,6.80
2019-04-21T11:08:00.894Z,6.67
2019-04-21T11:10:20.330Z,5.90
2019-04-21T11:12:52.640Z,6.93
2019-04-21T11:15:23.368Z,6.70
2019-04-21T11:17:52.627Z,7.10
2019-04-21T11:20:22.814Z,6.83
2019-04-21T11:22:53.665Z,6.17
2019-04-21T11:25:24.293Z,6.90
2019-04-21T11:27:55.316Z,6.30
2019-04-21T11:30:25.603Z,6.20
2019-04-21T11:32:57.133Z,6.17
2019-04-21T11:35:27.624Z,6.10
2019-04-21T11:38:11.446Z,5.70
2019-04-21T11:40:31.873Z,5.50
2019-04-21T11:43:03.862Z,6.33
2019-04-21T11:45:34.861Z,5.37
2019-04-21T11:48:21.926Z,5.40
2019-04-21T11:50:53.119Z,4.70
2019-04-21T11:53:23.156Z,5.33
2019-04-21T11:55:53.926Z,5.50
2019-04-21T11:58:23.754Z,5.73
2019-04-21T12:01:00.744Z,5.73
2019-04-21T12:03:31.561Z,5.43
2019-04-21T12:06:01.555Z,5.30
2019-04-21T12:08:39.327Z,5.30
2019-04-21T12:11:03.289Z,5.90
2019-04-21T12:13:34.051Z,5.43
2019-04-21T12:16:03.462Z,5.87
2019-04-21T12:18:34.006Z,6.00
2019-04-21T12:21:03.395Z,5.47
2019-04-21T12:23:32.654Z,6.37
2019-04-21T12:26:03.051Z,5.77
2019-04-21T12:28:32.478Z,5.70
2019-04-21T12:31:03.227Z,5.93
2019-04-21T12:34:00.459Z,5.77
2019-04-21T12:36:31.808Z,6.13
2019-04-21T12:39:04.770Z,5.30
2019-04-21T12:41:32.931Z,5.80
2019-04-21T12:44:02.979Z,5.20
2019-04-21T12:46:32.178Z,5.73
2019-04-21T12:49:02.198Z,5.43
2019-04-21T12:51:31.651Z,5.17
2019-04-21T12:54:03.776Z,5.07
2019-04-21T12:56:33.664Z,5.53
2019-04-21T12:59:05.055Z,5.53
2019-04-21T13:01:34.997Z,5.60
2019-04-21T13:04:04.385Z,5.35
2019-04-21T13:06:33.897Z,5.57
2019-04-21T13:09:07.432Z,5.70
2019-04-21T13:11:41.385Z,5.40
2019-04-21T13:14:11.598Z,5.62
2019-04-21T13:16:41.265Z,5.58
2019-04-21T13:19:11.447Z,5.83
2019-04-21T13:21:42.345Z,5.72
2019-04-21T13:24:11.836Z,5.10
2019-04-21T13:26:48.396Z,5.45
2019-04-21T13:29:12.348Z,5.85
2019-04-21T13:31:44.430Z,5.78
2019-04-21T13:34:14.060Z,5.65
2019-04-21T13:36:43.642Z,6.08
2019-04-21T13:40:16.111Z,6.03
2019-04-21T13:42:35.776Z,5.90
2019-04-21T13:44:57.835Z,5.62
2019-04-21T13:47:36.534Z,5.50
2019-04-21T13:50:08.605Z,5.67
2019-04-21T13:52:38.545Z,5.70
2019-04-21T13:55:07.962Z,6.08
2019-04-21T13:57:39.044Z,5.78
2019-04-21T14:00:17.368Z,5.80
2019-04-21T14:02:56.445Z,5.60
2019-04-21T14:05:26.534Z,5.55
2019-04-21T14:07:58.008Z,5.35
2019-04-21T14:10:28.944Z,5.28
2019-04-21T14:12:58.496Z,5.22
2019-04-21T14:15:28.538Z,5.72
2019-04-21T14:17:58.379Z,5.90
2019-04-21T14:20:29.007Z,5.62
2019-04-21T14:23:10.312Z,5.42
2019-04-21T14:25:29.959Z,5.90
2019-04-21T14:27:59.899Z,5.92
2019-04-21T14:30:30.453Z,5.83
2019-04-21T14:33:00.307Z,5.67
2019-04-21T14:35:29.604Z,5.95
2019-04-21T14:37:58.906Z,6.47
2019-04-21T14:40:31.436Z,5.80
2019-04-21T14:43:00.254Z,11.48
2019-04-21T14:45:50.549Z,13.05
2019-04-21T14:48:38.801Z,13.72
2019-04-21T14:51:34.822Z,12.03
2019-04-21T14:54:18.241Z,5.75
2019-04-21T14:56:49.294Z,6.40
2019-04-21T14:59:19.293Z,6.85
2019-04-21T15:01:49.560Z,5.55
2019-04-21T15:04:19.376Z,5.85
2019-04-21T15:06:49.893Z,6.15
2019-04-21T15:09:43.257Z,6.90
2019-04-21T15:12:16.200Z,5.70
2019-04-21T15:15:08.025Z,5.42
2019-04-21T15:17:41.960Z,5.40
2019-04-21T15:20:15.628Z,4.97
2019-04-21T15:22:42.213Z,5.78
2019-04-21T15:25:14.098Z,5.42
2019-04-21T15:27:48.774Z,5.47
2019-04-21T15:30:19.069Z,5.72
2019-04-21T15:32:49.007Z,5.72
2019-04-21T15:35:24.919Z,5.62
2019-04-21T15:37:55.824Z,5.45
2019-04-21T15:40:35.298Z,5.53
2019-04-21T15:42:56.795Z,5.95
2019-04-21T15:45:26.487Z,5.40
2019-04-21T15:47:56.016Z,5.20
2019-04-21T15:50:26.518Z,6.40
2019-04-21T15:52:58.436Z,6.12
2019-04-21T15:55:52.866Z,5.03
2019-04-21T15:58:32.781Z,4.83
2019-04-21T16:01:10.295Z,4.25
2019-04-21T16:03:40.667Z,4.60
2019-04-21T16:06:10.078Z,4.90
2019-04-21T16:08:39.666Z,5.03
2019-04-21T16:11:11.323Z,4.70
2019-04-21T16:13:41.682Z,4.37
2019-04-21T16:16:12.619Z,3.80
2019-04-21T16:18:42.680Z,4.28
2019-04-21T16:21:13.855Z,4.60
2019-04-21T16:26:46.874Z,4.65
2019-04-21T16:29:17.384Z,4.80
2019-04-21T16:31:47.086Z,4.90
2019-04-21T16:34:17.851Z,4.60
2019-04-21T16:36:47.724Z,4.50
2019-04-21T16:39:17.675Z,4.87
2019-04-21T16:41:46.992Z,4.72
2019-04-21T16:44:16.888Z,4.28
2019-04-21T16:46:47.546Z,4.20
2019-04-21T16:49:17.901Z,4.12
2019-04-21T16:51:49.973Z,4.20
2019-04-21T16:54:26.535Z,4.80
2019-04-21T16:57:17.805Z,4.80
2019-04-21T16:59:56.749Z,4.87
2019-04-21T17:02:26.428Z,4.75
2019-04-21T17:04:56.296Z,4.33
2019-04-21T17:07:26.278Z,4.65
2019-04-21T17:09:56.814Z,3.98
2019-04-21T17:12:26.840Z,4.37
2019-04-21T17:15:15.199Z,4.28
2019-04-21T17:17:49.775Z,4.20
2019-04-21T17:20:13.564Z,4.23
2019-04-21T17:22:31.561Z,3.95
2019-04-21T17:25:02.530Z,4.20
2019-04-21T17:27:33.293Z,4.03
2019-04-21T17:30:02.625Z,4.20
2019-04-21T17:32:37.191Z,4.23
2019-04-21T17:35:03.992Z,4.23
2019-04-21T17:37:34.140Z,3.80
2019-04-21T17:40:05.620Z,4.00
2019-04-21T17:42:46.406Z,3.80
2019-04-21T17:45:09.015Z,3.90
2019-04-21T17:47:46.825Z,3.90
2019-04-21T17:50:31.760Z,3.87
2019-04-21T17:53:10.706Z,6.87
2019-04-21T17:55:40.737Z,4.23
2019-04-21T17:58:27.004Z,4.10
2019-04-21T18:01:10.371Z,3.90
2019-04-21T18:03:50.428Z,4.00
2019-04-21T18:05:59.578Z,3.57
2019-04-21T18:08:38.654Z,3.87
2019-04-21T18:11:00.249Z,3.97
2019-04-21T18:13:22.777Z,3.63
2019-04-21T18:16:01.642Z,3.90
2019-04-21T18:18:23.128Z,3.90
2019-04-21T18:20:58.748Z,3.73
2019-04-21T18:23:49.593Z,3.73
2019-04-21T18:26:23.230Z,3.90
2019-04-21T18:28:40.842Z,4.10
2019-04-21T18:31:14.642Z,4.27
2019-04-21T18:33:49.866Z,3.70
2019-04-21T18:36:34.945Z,3.90
2019-04-21T18:39:46.418Z,3.80
2019-04-21T18:42:37.170Z,3.87
2019-04-21T18:45:55.413Z,3.70
2019-04-21T18:48:32.816Z,3.73
2019-04-21T18:51:06.232Z,3.90
2019-04-21T18:54:07.120Z,3.90
2019-04-21T18:56:23.344Z,3.67
2019-04-21T18:58:54.078Z,4.07
2019-04-21T19:01:27.644Z,4.17
2019-04-21T19:03:56.156Z,3.90
2019-04-21T19:06:43.891Z,3.83
2019-04-21T19:09:15.033Z,3.97
2019-04-21T19:11:50.232Z,4.00
2019-04-21T19:19:41.124Z,4.27
2019-04-21T19:22:00.184Z,4.00
2019-04-21T19:27:04.676Z,4.23
2019-04-21T19:32:08.406Z,4.00
2019-04-21T19:34:25.955Z,4.30
2019-04-21T19:36:57.623Z,4.23
2019-04-21T19:39:36.406Z,4.37
2019-04-21T19:42:03.089Z,7.30
2019-04-21T19:44:42.968Z,5.47
2019-04-21T19:47:17.472Z,5.77
2019-04-21T19:49:49.964Z,7.00
2019-04-21T19:52:06.582Z,6.13
2019-04-21T19:54:38.156Z,4.90
2019-04-21T19:57:04.998Z,4.77
2019-04-21T19:59:42.262Z,5.13
2019-04-21T20:02:06.950Z,5.13
2019-04-21T20:04:42.789Z,5.10
2019-04-21T20:07:23.435Z,5.33
2019-04-21T20:09:56.601Z,5.53
2019-04-21T20:12:36.608Z,5.23
2019-04-21T20:15:08.136Z,5.50
2019-04-21T20:17:47.851Z,6.43
2019-04-21T20:20:00.793Z,7.17
2019-04-21T20:22:36.411Z,5.93
2019-04-21T20:25:07.894Z,5.33
2019-04-21T20:27:42.981Z,5.67
2019-04-21T20:30:21.837Z,6.20
2019-04-21T20:33:01.599Z,5.80
2019-04-21T20:35:32.344Z,5.53
2019-04-21T20:37:52.560Z,5.70
2019-04-21T20:40:21.816Z,5.67
2019-04-21T20:42:51.067Z,5.70
2019-04-21T20:45:35.219Z,5.73
2019-04-21T20:47:48.819Z,5.50
2019-04-21T20:50:29.932Z,5.50
2019-04-21T20:53:06.076Z,5.53
2019-04-21T20:55:26.438Z,5.57
2019-04-21T20:57:57.765Z,5.50
2019-04-21T21:00:37.168Z,5.47
2019-04-21T21:03:12.111Z,5.97
2019-04-21T21:05:37.110Z,5.53
2019-04-21T21:08:16.860Z,5.90
2019-04-21T21:10:38.908Z,5.80
2019-04-21T21:13:22.224Z,6.13
2019-04-21T21:15:52.525Z,5.40
2019-04-21T21:18:26.196Z,5.70
2019-04-21T21:20:49.879Z,5.07
2019-04-21T21:23:14.527Z,6.23
2019-04-21T21:25:50.751Z,5.93
2019-04-21T21:28:21.855Z,6.10
2019-04-21T21:30:46.551Z,6.40
2019-04-21T21:33:25.612Z,6.33
2019-04-21T21:35:50.063Z,6.60
2019-04-21T21:38:28.181Z,6.67
2019-04-21T21:40:53.003Z,6.30
2019-04-21T21:43:17.549Z,6.47
2019-04-21T21:45:50.229Z,6.23
2019-04-21T21:48:39.531Z,6.00
2019-04-21T21:51:03.859Z,6.30
2019-04-21T21:53:28.615Z,6.60
2019-04-21T21:55:58.548Z,7.03
2019-04-21T21:58:36.458Z,6.37
2019-04-21T22:01:02.992Z,6.20
2019-04-21T22:03:37.101Z,6.47
2019-04-21T22:06:07.868Z,6.90
2019-04-21T22:08:34.381Z,7.43
2019-04-21T22:11:03.663Z,6.63
2019-04-21T22:13:43.596Z,6.17
2019-04-21T22:16:11.832Z,6.93
2019-04-21T22:18:58.600Z,6.80
2019-04-21T22:21:21.510Z,7.13
2019-04-21T22:23:47.913Z,7.17
2019-04-21T22:26:09.269Z,6.93
2019-04-21T22:28:39.730Z,7.00
2019-04-21T22:31:15.064Z,6.73
2019-04-21T22:33:49.693Z,6.83
2019-04-21T22:36:27.411Z,6.53
2019-04-21T22:39:01.533Z,6.90
2019-04-21T22:41:28.208Z,6.87
2019-04-21T22:43:49.863Z,6.23
2019-04-21T22:46:18.163Z,6.67
2019-04-21T22:48:55.891Z,6.03
2019-04-21T22:51:23.705Z,6.43
2019-04-21T22:53:52.208Z,6.13
2019-04-21T22:56:25.842Z,6.53
2019-04-21T22:58:52.990Z,6.47
2019-04-21T23:01:28.542Z,6.60
2019-04-21T23:03:58.826Z,6.63
2019-04-21T23:06:28.694Z,7.37
2019-04-21T23:08:57.114Z,7.63
2019-04-21T23:11:28.009Z,7.20
2019-04-21T23:14:04.337Z,7.37
2019-04-21T23:16:35.249Z,7.50
2019-04-21T23:19:21.208Z,7.20
2019-04-21T23:21:55.301Z,7.57
2019-04-21T23:24:22.182Z,7.30
2019-04-21T23:26:49.336Z,7.87
2019-04-21T23:29:30.243Z,7.40
2019-04-21T23:31:57.937Z,7.03
2019-04-21T23:34:06.387Z,7.70
2019-04-21T23:36:41.037Z,8.03
2019-04-21T23:39:15.636Z,8.27
2019-04-21T23:41:45.351Z,8.07
2019-04-21T23:44:13.556Z,8.13
2019-04-21T23:46:42.628Z,8.67
2019-04-21T23:49:23.179Z,8.10
2019-04-21T23:51:50.643Z,8.13
2019-04-21T23:54:15.597Z,8.50
2019-04-21T23:56:47.584Z,7.80
2019-04-21T23:59:17.816Z,8.47
